ADDS METAR Data INFO
IDs: Format: Raw Decoded Include TAF

Data at: 1449 UTC 11 Dec 2017

KHFJ 111430Z AUTO 22011KT 10SM CLR 06/M05 A3007 RMK AO2
KHFJ 111410Z AUTO 21008KT 10SM CLR 05/M05 A3008 RMK AO2
KHFJ 111350Z AUTO 23008KT 10SM CLR 05/M05 A3008 RMK AO2
KHFJ 111330Z AUTO 22008KT 10SM CLR 04/M05 A3008 RMK AO2
KHFJ 111310Z AUTO 21007KT 10SM CLR 04/M05 A3009 RMK AO2
KHFJ 111250Z AUTO 21008KT 10SM CLR 05/M05 A3008 RMK AO2
KHFJ 111230Z AUTO 21007KT 10SM CLR 04/M05 A3008 RMK AO2
KHFJ 111210Z AUTO 21007KT 10SM CLR 03/M05 A3009 RMK AO2
KHFJ 111150Z AUTO 20007KT 10SM CLR 03/M05 A3008 RMK AO2
KHFJ 111130Z AUTO 21008KT 10SM CLR 03/M05 A3010 RMK AO2
KHFJ 111110Z AUTO 20008KT 10SM CLR 03/M05 A3009 RMK AO2
KHFJ 111050Z AUTO 21008KT 10SM CLR 03/M05 A3010 RMK AO2
KHFJ 111030Z AUTO 21007KT 10SM CLR 03/M05 A3011 RMK AO2
KHFJ 111010Z AUTO 21007KT 10SM CLR 03/M05 A3012 RMK AO2
KHFJ 110950Z AUTO 21008KT 10SM CLR 03/M05 A3012 RMK AO2
KHFJ 110930Z AUTO 20007KT 10SM CLR 04/M05 A3013 RMK AO2
KHFJ 110910Z AUTO 19007KT 10SM CLR 03/M05 A3013 RMK AO2
KHFJ 110850Z AUTO 20006KT 10SM CLR 04/M05 A3015 RMK AO2
KHFJ 110830Z AUTO 21006KT 10SM CLR 04/M05 A3015 RMK AO2
KHFJ 110810Z AUTO 20006KT 10SM CLR 04/M05 A3016 RMK AO2
KHFJ 110750Z AUTO 20007KT 10SM CLR 05/M05 A3016 RMK AO2
KHFJ 110730Z AUTO 19005KT 10SM CLR 04/M05 A3016 RMK AO2
KHFJ 110710Z AUTO 20005KT 10SM CLR 05/M05 A3017 RMK AO2
KHFJ 110650Z AUTO 21005KT 10SM CLR 04/M05 A3017 RMK AO2
KHFJ 110630Z AUTO 19005KT 10SM CLR 05/M05 A3017 RMK AO2
KHFJ 110610Z AUTO 20004KT 10SM CLR 05/M05 A3018 RMK AO2
KHFJ 110550Z AUTO 20005KT 10SM CLR 05/M05 A3018 RMK AO2
KHFJ 110530Z AUTO 21005KT 10SM CLR 05/M05 A3019 RMK AO2
KHFJ 110510Z AUTO 19005KT 10SM CLR 05/M05 A3018 RMK AO2
KHFJ 110450Z AUTO 20005KT 10SM CLR 05/M05 A3019 RMK AO2
KHFJ 110430Z AUTO 20005KT 10SM CLR 05/M05 A3019 RMK AO2
KHFJ 110410Z AUTO 22004KT 10SM CLR 06/M05 A3019 RMK AO2
KHFJ 110350Z AUTO 22003KT 10SM CLR 06/M05 A3019 RMK AO2
KHFJ 110330Z AUTO 22004KT 10SM CLR 06/M05 A3019 RMK AO2
KHFJ 110310Z AUTO 22004KT 10SM CLR 06/M05 A3019 RMK AO2
KHFJ 110250Z AUTO 22003KT 10SM CLR 06/M05 A3019 RMK AO2
KHFJ 110230Z AUTO 23003KT 10SM CLR 06/M05 A3019 RMK AO2
KHFJ 110210Z AUTO 22003KT 10SM CLR 07/M05 A3018 RMK AO2
KHFJ 110150Z AUTO 23003KT 10SM CLR 07/M05 A3018 RMK AO2
KHFJ 110130Z AUTO 23004KT 10SM CLR 07/M05 A3018 RMK AO2
KHFJ 110110Z AUTO 24005KT 10SM CLR 08/M05 A3018 RMK AO2
KHFJ 110050Z AUTO 22004KT 10SM CLR 08/M05 A3018 RMK AO2
KHFJ 110030Z AUTO 23005KT 10SM CLR 08/M05 A3017 RMK AO2
KHFJ 110010Z AUTO 22005KT 10SM CLR 08/M04 A3017 RMK AO2
KHFJ 102350Z AUTO 22004KT 10SM CLR 08/M04 A3016 RMK AO2
KHFJ 102330Z AUTO 24005KT 10SM CLR 08/M04 A3016 RMK AO2
KHFJ 102310Z AUTO 24005KT 10SM CLR 10/M04 A3016 RMK AO2
KHFJ 102250Z AUTO 26005KT 10SM CLR 10/M04 A3016 RMK AO2
KHFJ 102230Z AUTO 26007KT 10SM CLR 11/M03 A3015 RMK AO2
KHFJ 102210Z AUTO 26007KT 10SM CLR 12/M03 A3015 RMK AO2
KHFJ 102150Z AUTO 27009KT 10SM CLR 12/M03 A3015 RMK AO2
KHFJ 102130Z AUTO 26009KT 10SM CLR 12/M04 A3015 RMK AO2
KHFJ 102110Z AUTO 28012KT 10SM CLR 12/M04 A3015 RMK AO2
KHFJ 102050Z AUTO 27010KT 10SM CLR 13/M03 A3015 RMK AO2
KHFJ 102030Z AUTO 26011KT 10SM CLR 13/M03 A3015 RMK AO2
KHFJ 102010Z AUTO 26012KT 10SM CLR 12/M04 A3015 RMK AO2
KHFJ 101950Z AUTO 28012G16KT 10SM CLR 12/M04 A3014 RMK AO2
KHFJ 101930Z AUTO 27010KT 10SM CLR 12/M04 A3014 RMK AO2
KHFJ 101910Z AUTO 27009KT 10SM CLR 12/M04 A3015 RMK AO2
KHFJ 101850Z AUTO 27008KT 10SM CLR 12/M03 A3015 RMK AO2
KHFJ 101830Z AUTO 27012KT 10SM CLR 11/M04 A3015 RMK AO2
KHFJ 101810Z AUTO 27010KT 10SM CLR 11/M04 A3016 RMK AO2
KHFJ 101750Z AUTO 27010KT 10SM CLR 10/M03 A3016 RMK AO2
KHFJ 101730Z AUTO 25009KT 10SM CLR 10/M03 A3016 RMK AO2
KHFJ 101710Z AUTO 25009G15KT 10SM CLR 09/M04 A3017 RMK AO2
KHFJ 101650Z AUTO 25009KT 10SM CLR 08/M03 A3017 RMK AO2
KHFJ 101630Z AUTO 24011KT 10SM CLR 07/M03 A3017 RMK AO2
KHFJ 101610Z AUTO 26011KT 10SM CLR 07/M03 A3018 RMK AO2
KHFJ 101550Z AUTO 24010KT 10SM CLR 06/M03 A3018 RMK AO2
KHFJ 101530Z AUTO 24009KT 10SM CLR 05/M03 A3018 RMK AO2
KHFJ 101510Z AUTO 24010KT 10SM CLR 04/M03 A3018 RMK AO2
KHFJ 101450Z AUTO 23011KT 10SM CLR 03/M03 A3017 RMK AO2
KHFJ 101430Z AUTO 22008KT 10SM CLR 01/M04 A3017 RMK AO2
KHFJ 101410Z AUTO 22010KT 10SM CLR 01/M05 A3017 RMK AO2
KHFJ 101350Z AUTO 22009KT 10SM CLR 01/M05 A3016 RMK AO2
KHFJ 101330Z AUTO 21009KT 10SM CLR 00/M05 A3016 RMK AO2
KHFJ 101310Z AUTO 21008KT 10SM CLR 00/M06 A3016 RMK AO2
KHFJ 101250Z AUTO 21009KT 10SM CLR 00/M06 A3016 RMK AO2
KHFJ 101230Z AUTO 21009KT 10SM CLR 00/M06 A3017 RMK AO2
KHFJ 101210Z AUTO 21010KT 10SM CLR 00/M06 A3017 RMK AO2
KHFJ 101150Z AUTO 21010KT 10SM CLR 00/M06 A3017 RMK AO2
KHFJ 101130Z AUTO 20008KT 10SM CLR 00/M06 A3018 RMK AO2
KHFJ 101110Z AUTO 21010KT 10SM CLR M01/M06 A3018 RMK AO2
KHFJ 101050Z AUTO 21010KT 10SM CLR M01/M06 A3019 RMK AO2
KHFJ 101030Z AUTO 21009KT 10SM CLR M01/M06 A3019 RMK AO2
KHFJ 101010Z AUTO 19008KT 10SM CLR M02/M06 A3019 RMK AO2
KHFJ 100950Z AUTO 19005KT 10SM CLR M02/M07 A3021 RMK AO2
KHFJ 100930Z AUTO 20006KT 10SM CLR M02/M07 A3021 RMK AO2
KHFJ 100910Z AUTO 21005KT 10SM CLR M02/M07 A3022 RMK AO2
KHFJ 100850Z AUTO 20005KT 10SM CLR M02/M07 A3021 RMK AO2
KHFJ 100830Z AUTO 18006KT 10SM CLR M02/M07 A3020 RMK AO2
KHFJ 100810Z AUTO 18006KT 10SM CLR M03/M07 A3020 RMK AO2
KHFJ 100750Z AUTO 19005KT 10SM CLR M02/M07 A3021 RMK AO2
KHFJ 100730Z AUTO 19005KT 10SM CLR M03/M07 A3021 RMK AO2
KHFJ 100710Z AUTO 18004KT 10SM CLR M02/M07 A3021 RMK AO2
KHFJ 100650Z AUTO 20005KT 10SM CLR M02/M07 A3021 RMK AO2
KHFJ 100630Z AUTO 19005KT 10SM CLR M02/M07 A3021 RMK AO2
KHFJ 100610Z AUTO 20003KT 10SM CLR M02/M07 A3022 RMK AO2
KHFJ 100550Z AUTO 20004KT 10SM CLR M02/M07 A3023 RMK AO2
KHFJ 100530Z AUTO 00000KT 10SM CLR M01/M07 A3023 RMK AO2
KHFJ 100510Z AUTO 22004KT 10SM CLR M02/M07 A3025 RMK AO2
KHFJ 100450Z AUTO 21003KT 10SM CLR M02/M07 A3025 RMK AO2
KHFJ 100430Z AUTO 20004KT 10SM CLR M02/M07 A3025 RMK AO2
KHFJ 100410Z AUTO 21003KT 10SM CLR M01/M07 A3025 RMK AO2
KHFJ 100350Z AUTO 00000KT 10SM CLR 00/M07 A3025 RMK AO2
KHFJ 100330Z AUTO 00000KT 10SM CLR 00/M07 A3025 RMK AO2
KHFJ 100310Z AUTO 00000KT 10SM CLR 00/M07 A3024 RMK AO2
KHFJ 100250Z AUTO 28003KT 10SM CLR 00/M07 A3024 RMK AO2